sensor_id;sensor_type;location;lat;lon;timestamp;P1;durP1;ratioP1;P2;durP2;ratioP2
74791;SDS011;63319;46.046;17.802;2023-02-01T00:01:31;38.03;;;22.13;;
74791;SDS011;63319;46.046;17.802;2023-02-01T00:04:34;38.33;;;22.37;;
74791;SDS011;63319;46.046;17.802;2023-02-01T00:07:37;36.83;;;22.20;;
74791;SDS011;63319;46.046;17.802;2023-02-01T00:10:40;40.22;;;23.38;;
74791;SDS011;63319;46.046;17.802;2023-02-01T00:13:43;35.00;;;21.33;;
74791;SDS011;63319;46.046;17.802;2023-02-01T00:16:46;35.25;;;21.90;;
74791;SDS011;63319;46.046;17.802;2023-02-01T00:19:48;36.30;;;21.70;;
74791;SDS011;63319;46.046;17.802;2023-02-01T00:22:51;34.85;;;22.17;;
74791;SDS011;63319;46.046;17.802;2023-02-01T00:25:54;39.80;;;22.65;;
74791;SDS011;63319;46.046;17.802;2023-02-01T00:28:57;36.38;;;21.55;;
74791;SDS011;63319;46.046;17.802;2023-02-01T00:32:00;36.90;;;21.35;;
74791;SDS011;63319;46.046;17.802;2023-02-01T00:35:03;36.70;;;21.30;;
74791;SDS011;63319;46.046;17.802;2023-02-01T00:38:07;37.85;;;22.30;;
74791;SDS011;63319;46.046;17.802;2023-02-01T00:41:14;35.88;;;22.33;;
74791;SDS011;63319;46.046;17.802;2023-02-01T00:44:19;34.90;;;20.45;;
74791;SDS011;63319;46.046;17.802;2023-02-01T00:47:22;36.58;;;21.15;;
74791;SDS011;63319;46.046;17.802;2023-02-01T00:50:25;33.37;;;21.50;;
74791;SDS011;63319;46.046;17.802;2023-02-01T00:53:28;34.50;;;21.45;;
74791;SDS011;63319;46.046;17.802;2023-02-01T00:56:32;34.03;;;21.33;;
74791;SDS011;63319;46.046;17.802;2023-02-01T00:59:34;32.03;;;20.02;;
74791;SDS011;63319;46.046;17.802;2023-02-01T01:02:37;33.90;;;21.70;;
74791;SDS011;63319;46.046;17.802;2023-02-01T01:05:40;33.93;;;20.47;;
74791;SDS011;63319;46.046;17.802;2023-02-01T01:08:43;35.70;;;20.88;;
74791;SDS011;63319;46.046;17.802;2023-02-01T01:11:51;34.63;;;20.45;;
74791;SDS011;63319;46.046;17.802;2023-02-01T01:14:55;34.55;;;20.95;;
74791;SDS011;63319;46.046;17.802;2023-02-01T01:17:57;33.90;;;19.13;;
74791;SDS011;63319;46.046;17.802;2023-02-01T01:21:01;33.73;;;20.53;;
74791;SDS011;63319;46.046;17.802;2023-02-01T01:24:06;32.75;;;20.30;;
74791;SDS011;63319;46.046;17.802;2023-02-01T01:27:09;32.80;;;20.33;;
74791;SDS011;63319;46.046;17.802;2023-02-01T01:30:12;31.80;;;19.75;;
74791;SDS011;63319;46.046;17.802;2023-02-01T01:33:15;31.27;;;19.05;;
74791;SDS011;63319;46.046;17.802;2023-02-01T01:36:18;31.77;;;19.27;;
74791;SDS011;63319;46.046;17.802;2023-02-01T01:39:22;33.95;;;19.73;;
74791;SDS011;63319;46.046;17.802;2023-02-01T01:42:25;32.25;;;19.30;;
74791;SDS011;63319;46.046;17.802;2023-02-01T01:45:28;30.63;;;20.05;;
74791;SDS011;63319;46.046;17.802;2023-02-01T01:48:33;31.90;;;19.38;;
74791;SDS011;63319;46.046;17.802;2023-02-01T01:51:37;30.50;;;19.13;;
74791;SDS011;63319;46.046;17.802;2023-02-01T01:54:47;31.15;;;18.73;;
74791;SDS011;63319;46.046;17.802;2023-02-01T01:57:55;29.98;;;18.58;;
74791;SDS011;63319;46.046;17.802;2023-02-01T02:01:03;31.98;;;19.77;;
74791;SDS011;63319;46.046;17.802;2023-02-01T02:04:06;31.10;;;19.08;;
74791;SDS011;63319;46.046;17.802;2023-02-01T02:07:10;31.00;;;18.43;;
74791;SDS011;63319;46.046;17.802;2023-02-01T02:10:17;31.98;;;18.42;;
74791;SDS011;63319;46.046;17.802;2023-02-01T02:13:20;31.60;;;19.02;;
74791;SDS011;63319;46.046;17.802;2023-02-01T02:16:40;29.48;;;17.55;;
74791;SDS011;63319;46.046;17.802;2023-02-01T02:40:15;29.80;;;17.63;;
74791;SDS011;63319;46.046;17.802;2023-02-01T02:43:28;28.70;;;17.45;;
74791;SDS011;63319;46.046;17.802;2023-02-01T02:47:21;26.85;;;17.25;;
74791;SDS011;63319;46.046;17.802;2023-02-01T02:50:34;28.15;;;17.27;;
74791;SDS011;63319;46.046;17.802;2023-02-01T02:54:13;30.30;;;18.63;;
74791;SDS011;63319;46.046;17.802;2023-02-01T02:57:40;25.87;;;16.90;;
74791;SDS011;63319;46.046;17.802;2023-02-01T03:01:05;26.45;;;16.33;;
74791;SDS011;63319;46.046;17.802;2023-02-01T03:04:27;28.17;;;17.08;;
74791;SDS011;63319;46.046;17.802;2023-02-01T03:11:09;27.35;;;17.25;;
74791;SDS011;63319;46.046;17.802;2023-02-01T03:14:13;27.90;;;16.80;;
74791;SDS011;63319;46.046;17.802;2023-02-01T03:17:21;27.92;;;16.52;;
74791;SDS011;63319;46.046;17.802;2023-02-01T03:20:32;28.23;;;16.95;;
74791;SDS011;63319;46.046;17.802;2023-02-01T03:23:36;30.45;;;18.23;;
74791;SDS011;63319;46.046;17.802;2023-02-01T03:26:41;27.63;;;17.08;;
74791;SDS011;63319;46.046;17.802;2023-02-01T03:30:07;29.53;;;16.93;;
74791;SDS011;63319;46.046;17.802;2023-02-01T03:33:16;26.40;;;16.20;;
74791;SDS011;63319;46.046;17.802;2023-02-01T03:36:35;25.52;;;16.17;;
74791;SDS011;63319;46.046;17.802;2023-02-01T03:39:51;26.70;;;16.88;;
74791;SDS011;63319;46.046;17.802;2023-02-01T03:42:59;26.98;;;16.15;;
74791;SDS011;63319;46.046;17.802;2023-02-01T03:46:09;27.50;;;16.80;;
74791;SDS011;63319;46.046;17.802;2023-02-01T03:49:29;27.92;;;16.45;;
74791;SDS011;63319;46.046;17.802;2023-02-01T03:55:49;30.45;;;17.77;;
74791;SDS011;63319;46.046;17.802;2023-02-01T03:58:54;26.40;;;15.80;;
74791;SDS011;63319;46.046;17.802;2023-02-01T04:02:07;25.87;;;15.87;;
74791;SDS011;63319;46.046;17.802;2023-02-01T04:05:12;24.98;;;15.68;;
74791;SDS011;63319;46.046;17.802;2023-02-01T04:08:22;29.02;;;17.95;;
74791;SDS011;63319;46.046;17.802;2023-02-01T04:11:25;27.20;;;15.40;;
74791;SDS011;63319;46.046;17.802;2023-02-01T04:14:29;28.77;;;18.35;;
74791;SDS011;63319;46.046;17.802;2023-02-01T04:17:32;26.90;;;15.87;;
74791;SDS011;63319;46.046;17.802;2023-02-01T04:20:35;27.05;;;16.50;;
74791;SDS011;63319;46.046;17.802;2023-02-01T04:23:38;27.85;;;16.38;;
74791;SDS011;63319;46.046;17.802;2023-02-01T04:26:41;26.98;;;16.88;;
74791;SDS011;63319;46.046;17.802;2023-02-01T04:29:45;27.00;;;16.30;;
74791;SDS011;63319;46.046;17.802;2023-02-01T04:32:48;26.47;;;15.70;;
74791;SDS011;63319;46.046;17.802;2023-02-01T04:35:51;27.50;;;16.20;;
74791;SDS011;63319;46.046;17.802;2023-02-01T04:38:54;26.42;;;16.42;;
74791;SDS011;63319;46.046;17.802;2023-02-01T04:41:57;26.20;;;15.95;;
74791;SDS011;63319;46.046;17.802;2023-02-01T04:45:01;27.50;;;16.98;;
74791;SDS011;63319;46.046;17.802;2023-02-01T04:48:05;28.60;;;17.03;;
74791;SDS011;63319;46.046;17.802;2023-02-01T04:51:08;28.70;;;16.17;;
74791;SDS011;63319;46.046;17.802;2023-02-01T04:54:12;26.50;;;17.60;;
74791;SDS011;63319;46.046;17.802;2023-02-01T04:57:15;28.65;;;15.70;;
74791;SDS011;63319;46.046;17.802;2023-02-01T05:00:18;27.42;;;16.67;;
74791;SDS011;63319;46.046;17.802;2023-02-01T05:03:21;29.07;;;16.60;;
74791;SDS011;63319;46.046;17.802;2023-02-01T05:06:24;27.75;;;15.77;;
74791;SDS011;63319;46.046;17.802;2023-02-01T05:09:27;27.40;;;15.45;;
74791;SDS011;63319;46.046;17.802;2023-02-01T05:12:31;26.65;;;16.38;;
74791;SDS011;63319;46.046;17.802;2023-02-01T05:15:52;27.25;;;17.13;;
74791;SDS011;63319;46.046;17.802;2023-02-01T05:18:55;28.23;;;17.07;;
74791;SDS011;63319;46.046;17.802;2023-02-01T05:21:58;27.48;;;16.25;;
74791;SDS011;63319;46.046;17.802;2023-02-01T05:25:01;28.50;;;16.98;;
74791;SDS011;63319;46.046;17.802;2023-02-01T05:28:04;27.58;;;15.88;;
74791;SDS011;63319;46.046;17.802;2023-02-01T05:31:11;28.40;;;16.75;;
74791;SDS011;63319;46.046;17.802;2023-02-01T05:34:14;29.63;;;17.03;;
74791;SDS011;63319;46.046;17.802;2023-02-01T05:37:17;24.70;;;16.27;;
74791;SDS011;63319;46.046;17.802;2023-02-01T05:40:21;26.45;;;16.55;;
74791;SDS011;63319;46.046;17.802;2023-02-01T05:43:24;26.90;;;16.90;;
74791;SDS011;63319;46.046;17.802;2023-02-01T05:46:30;27.52;;;16.40;;
74791;SDS011;63319;46.046;17.802;2023-02-01T05:49:33;26.10;;;15.93;;
74791;SDS011;63319;46.046;17.802;2023-02-01T05:52:36;26.88;;;15.85;;
74791;SDS011;63319;46.046;17.802;2023-02-01T05:55:39;27.98;;;17.02;;
74791;SDS011;63319;46.046;17.802;2023-02-01T05:58:42;27.92;;;17.60;;
74791;SDS011;63319;46.046;17.802;2023-02-01T06:01:45;31.65;;;17.38;;
74791;SDS011;63319;46.046;17.802;2023-02-01T06:04:48;25.23;;;15.40;;
74791;SDS011;63319;46.046;17.802;2023-02-01T06:07:51;27.67;;;16.70;;
74791;SDS011;63319;46.046;17.802;2023-02-01T06:11:00;27.38;;;17.13;;
74791;SDS011;63319;46.046;17.802;2023-02-01T06:14:07;28.42;;;17.25;;
74791;SDS011;63319;46.046;17.802;2023-02-01T06:17:10;28.00;;;17.42;;
74791;SDS011;63319;46.046;17.802;2023-02-01T06:20:13;29.80;;;17.77;;
74791;SDS011;63319;46.046;17.802;2023-02-01T06:23:17;28.75;;;17.17;;
74791;SDS011;63319;46.046;17.802;2023-02-01T06:26:20;28.40;;;17.40;;
74791;SDS011;63319;46.046;17.802;2023-02-01T06:29:23;28.02;;;17.38;;
74791;SDS011;63319;46.046;17.802;2023-02-01T06:32:26;27.63;;;17.73;;
74791;SDS011;63319;46.046;17.802;2023-02-01T06:35:29;27.00;;;16.93;;
74791;SDS011;63319;46.046;17.802;2023-02-01T06:38:32;28.13;;;17.15;;
74791;SDS011;63319;46.046;17.802;2023-02-01T06:41:38;29.83;;;18.45;;
74791;SDS011;63319;46.046;17.802;2023-02-01T06:44:41;25.30;;;15.45;;
74791;SDS011;63319;46.046;17.802;2023-02-01T06:47:44;27.23;;;17.27;;
74791;SDS011;63319;46.046;17.802;2023-02-01T06:50:47;27.37;;;16.80;;
74791;SDS011;63319;46.046;17.802;2023-02-01T06:53:50;26.48;;;17.05;;
74791;SDS011;63319;46.046;17.802;2023-02-01T06:56:54;28.08;;;18.58;;
74791;SDS011;63319;46.046;17.802;2023-02-01T07:00:01;28.40;;;17.40;;
74791;SDS011;63319;46.046;17.802;2023-02-01T07:03:06;24.88;;;15.90;;
74791;SDS011;63319;46.046;17.802;2023-02-01T07:06:09;30.80;;;17.10;;
74791;SDS011;63319;46.046;17.802;2023-02-01T07:09:12;28.58;;;16.42;;
74791;SDS011;63319;46.046;17.802;2023-02-01T07:12:16;26.48;;;17.15;;
74791;SDS011;63319;46.046;17.802;2023-02-01T07:15:19;24.55;;;15.65;;
74791;SDS011;63319;46.046;17.802;2023-02-01T07:18:26;26.73;;;16.23;;
74791;SDS011;63319;46.046;17.802;2023-02-01T07:21:30;26.50;;;15.63;;
74791;SDS011;63319;46.046;17.802;2023-02-01T07:24:34;25.30;;;15.77;;
74791;SDS011;63319;46.046;17.802;2023-02-01T07:27:38;26.38;;;16.30;;
74791;SDS011;63319;46.046;17.802;2023-02-01T07:30:40;26.90;;;16.63;;
74791;SDS011;63319;46.046;17.802;2023-02-01T07:33:44;28.08;;;16.70;;
74791;SDS011;63319;46.046;17.802;2023-02-01T07:36:47;28.03;;;16.90;;
74791;SDS011;63319;46.046;17.802;2023-02-01T07:39:51;26.98;;;17.05;;
74791;SDS011;63319;46.046;17.802;2023-02-01T07:42:54;26.10;;;17.55;;
74791;SDS011;63319;46.046;17.802;2023-02-01T07:45:58;27.73;;;16.67;;
74791;SDS011;63319;46.046;17.802;2023-02-01T07:49:10;25.65;;;16.73;;
74791;SDS011;63319;46.046;17.802;2023-02-01T07:52:30;26.70;;;16.80;;
74791;SDS011;63319;46.046;17.802;2023-02-01T07:55:50;32.55;;;17.40;;
74791;SDS011;63319;46.046;17.802;2023-02-01T08:04:18;35.15;;;19.27;;
74791;SDS011;63319;46.046;17.802;2023-02-01T08:08:09;29.95;;;19.00;;
74791;SDS011;63319;46.046;17.802;2023-02-01T08:11:52;34.53;;;20.33;;
74791;SDS011;63319;46.046;17.802;2023-02-01T08:19:11;29.65;;;19.33;;
74791;SDS011;63319;46.046;17.802;2023-02-01T08:22:39;31.63;;;19.70;;
74791;SDS011;63319;46.046;17.802;2023-02-01T08:35:21;31.88;;;19.75;;
74791;SDS011;63319;46.046;17.802;2023-02-01T08:44:06;32.13;;;19.20;;
74791;SDS011;63319;46.046;17.802;2023-02-01T08:47:49;35.17;;;20.17;;
74791;SDS011;63319;46.046;17.802;2023-02-01T08:51:36;33.10;;;20.33;;
74791;SDS011;63319;46.046;17.802;2023-02-01T08:58:53;33.70;;;20.20;;
74791;SDS011;63319;46.046;17.802;2023-02-01T09:02:32;29.95;;;19.42;;
74791;SDS011;63319;46.046;17.802;2023-02-01T09:10:17;30.80;;;19.57;;
74791;SDS011;63319;46.046;17.802;2023-02-01T09:13:50;34.30;;;20.20;;
74791;SDS011;63319;46.046;17.802;2023-02-01T09:17:06;30.63;;;19.35;;
74791;SDS011;63319;46.046;17.802;2023-02-01T09:20:09;34.33;;;20.00;;
74791;SDS011;63319;46.046;17.802;2023-02-01T09:23:12;33.17;;;20.60;;
74791;SDS011;63319;46.046;17.802;2023-02-01T09:26:16;35.30;;;21.23;;
74791;SDS011;63319;46.046;17.802;2023-02-01T09:29:31;35.50;;;19.58;;
74791;SDS011;63319;46.046;17.802;2023-02-01T09:32:35;33.72;;;20.23;;
74791;SDS011;63319;46.046;17.802;2023-02-01T09:35:38;33.92;;;19.08;;
74791;SDS011;63319;46.046;17.802;2023-02-01T09:38:41;31.13;;;18.50;;
74791;SDS011;63319;46.046;17.802;2023-02-01T09:45:24;36.47;;;18.58;;
74791;SDS011;63319;46.046;17.802;2023-02-01T09:48:36;28.15;;;17.52;;
74791;SDS011;63319;46.046;17.802;2023-02-01T09:51:46;30.73;;;17.95;;
74791;SDS011;63319;46.046;17.802;2023-02-01T09:54:52;28.60;;;17.65;;
74791;SDS011;63319;46.046;17.802;2023-02-01T09:58:07;28.77;;;18.23;;
74791;SDS011;63319;46.046;17.802;2023-02-01T10:01:21;28.10;;;16.85;;
74791;SDS011;63319;46.046;17.802;2023-02-01T10:04:26;24.95;;;16.50;;
74791;SDS011;63319;46.046;17.802;2023-02-01T10:07:33;27.23;;;16.65;;
74791;SDS011;63319;46.046;17.802;2023-02-01T10:10:45;27.73;;;17.20;;
74791;SDS011;63319;46.046;17.802;2023-02-01T10:13:59;27.57;;;17.17;;
74791;SDS011;63319;46.046;17.802;2023-02-01T10:20:43;29.08;;;16.88;;
74791;SDS011;63319;46.046;17.802;2023-02-01T10:27:34;27.38;;;15.98;;
74791;SDS011;63319;46.046;17.802;2023-02-01T10:30:41;25.47;;;15.23;;
74791;SDS011;63319;46.046;17.802;2023-02-01T10:33:57;26.10;;;15.20;;
74791;SDS011;63319;46.046;17.802;2023-02-01T10:37:08;26.30;;;15.55;;
74791;SDS011;63319;46.046;17.802;2023-02-01T10:40:22;23.92;;;14.35;;
74791;SDS011;63319;46.046;17.802;2023-02-01T10:43:27;25.35;;;15.45;;
74791;SDS011;63319;46.046;17.802;2023-02-01T10:46:31;26.20;;;15.40;;
74791;SDS011;63319;46.046;17.802;2023-02-01T10:49:42;25.55;;;14.57;;
74791;SDS011;63319;46.046;17.802;2023-02-01T10:52:58;23.88;;;14.68;;
74791;SDS011;63319;46.046;17.802;2023-02-01T10:56:07;22.05;;;14.40;;
74791;SDS011;63319;46.046;17.802;2023-02-01T10:59:35;23.30;;;14.85;;
74791;SDS011;63319;46.046;17.802;2023-02-01T11:02:41;22.77;;;13.50;;
74791;SDS011;63319;46.046;17.802;2023-02-01T11:05:45;21.30;;;13.70;;
74791;SDS011;63319;46.046;17.802;2023-02-01T11:08:52;25.35;;;13.80;;
74791;SDS011;63319;46.046;17.802;2023-02-01T11:12:04;21.35;;;13.52;;
74791;SDS011;63319;46.046;17.802;2023-02-01T11:18:17;21.90;;;13.00;;
74791;SDS011;63319;46.046;17.802;2023-02-01T11:21:22;25.25;;;13.93;;
74791;SDS011;63319;46.046;17.802;2023-02-01T11:24:26;24.35;;;15.23;;
74791;SDS011;63319;46.046;17.802;2023-02-01T11:27:31;20.85;;;13.07;;
74791;SDS011;63319;46.046;17.802;2023-02-01T11:30:45;22.40;;;13.73;;
74791;SDS011;63319;46.046;17.802;2023-02-01T11:33:59;20.80;;;13.23;;
74791;SDS011;63319;46.046;17.802;2023-02-01T11:40:47;20.27;;;13.02;;
74791;SDS011;63319;46.046;17.802;2023-02-01T11:44:05;19.70;;;12.48;;
74791;SDS011;63319;46.046;17.802;2023-02-01T11:47:28;21.98;;;12.57;;
74791;SDS011;63319;46.046;17.802;2023-02-01T11:57:57;20.25;;;11.68;;
74791;SDS011;63319;46.046;17.802;2023-02-01T12:01:33;19.23;;;12.68;;
74791;SDS011;63319;46.046;17.802;2023-02-01T12:11:21;19.25;;;11.50;;
74791;SDS011;63319;46.046;17.802;2023-02-01T12:18:40;21.20;;;11.75;;
74791;SDS011;63319;46.046;17.802;2023-02-01T12:25:26;23.60;;;11.30;;
74791;SDS011;63319;46.046;17.802;2023-02-01T12:44:12;21.07;;;10.80;;
74791;SDS011;63319;46.046;17.802;2023-02-01T12:51:35;18.23;;;10.03;;
74791;SDS011;63319;46.046;17.802;2023-02-01T12:58:32;18.90;;;10.15;;
74791;SDS011;63319;46.046;17.802;2023-02-01T13:02:06;17.52;;;9.85;;
74791;SDS011;63319;46.046;17.802;2023-02-01T13:05:28;17.15;;;10.30;;
74791;SDS011;63319;46.046;17.802;2023-02-01T13:12:59;20.40;;;11.10;;
74791;SDS011;63319;46.046;17.802;2023-02-01T13:20:03;16.35;;;10.45;;
74791;SDS011;63319;46.046;17.802;2023-02-01T13:23:57;15.18;;;9.55;;
74791;SDS011;63319;46.046;17.802;2023-02-01T13:36:42;17.73;;;11.13;;
74791;SDS011;63319;46.046;17.802;2023-02-01T13:43:46;16.17;;;10.05;;
74791;SDS011;63319;46.046;17.802;2023-02-01T13:47:01;16.67;;;10.33;;
74791;SDS011;63319;46.046;17.802;2023-02-01T13:51:06;18.23;;;10.23;;
74791;SDS011;63319;46.046;17.802;2023-02-01T13:54:32;17.35;;;9.95;;
74791;SDS011;63319;46.046;17.802;2023-02-01T13:57:43;18.50;;;11.05;;
74791;SDS011;63319;46.046;17.802;2023-02-01T14:00:48;19.67;;;11.40;;
74791;SDS011;63319;46.046;17.802;2023-02-01T14:04:00;17.77;;;12.23;;
74791;SDS011;63319;46.046;17.802;2023-02-01T14:07:15;21.77;;;11.90;;
74791;SDS011;63319;46.046;17.802;2023-02-01T14:13:56;17.15;;;10.73;;
74791;SDS011;63319;46.046;17.802;2023-02-01T14:17:30;17.05;;;11.02;;
74791;SDS011;63319;46.046;17.802;2023-02-01T14:20:40;18.80;;;11.10;;
74791;SDS011;63319;46.046;17.802;2023-02-01T14:23:47;19.92;;;10.65;;
74791;SDS011;63319;46.046;17.802;2023-02-01T14:30:18;23.60;;;10.77;;
74791;SDS011;63319;46.046;17.802;2023-02-01T14:33:22;21.63;;;12.18;;
74791;SDS011;63319;46.046;17.802;2023-02-01T14:40:05;21.45;;;11.43;;
74791;SDS011;63319;46.046;17.802;2023-02-01T14:43:48;25.30;;;12.07;;
74791;SDS011;63319;46.046;17.802;2023-02-01T14:53:39;20.40;;;11.07;;
74791;SDS011;63319;46.046;17.802;2023-02-01T14:56:45;24.60;;;11.20;;
74791;SDS011;63319;46.046;17.802;2023-02-01T14:59:48;21.95;;;11.45;;
74791;SDS011;63319;46.046;17.802;2023-02-01T15:03:19;18.10;;;10.27;;
74791;SDS011;63319;46.046;17.802;2023-02-01T15:09:34;17.80;;;10.40;;
74791;SDS011;63319;46.046;17.802;2023-02-01T15:12:42;20.02;;;11.48;;
74791;SDS011;63319;46.046;17.802;2023-02-01T15:16:05;24.30;;;11.20;;
74791;SDS011;63319;46.046;17.802;2023-02-01T15:19:15;20.85;;;10.45;;
74791;SDS011;63319;46.046;17.802;2023-02-01T15:22:19;17.95;;;10.63;;
74791;SDS011;63319;46.046;17.802;2023-02-01T15:25:24;19.67;;;9.93;;
74791;SDS011;63319;46.046;17.802;2023-02-01T15:28:28;18.85;;;10.07;;
74791;SDS011;63319;46.046;17.802;2023-02-01T15:31:32;17.83;;;10.60;;
74791;SDS011;63319;46.046;17.802;2023-02-01T15:34:47;18.70;;;10.18;;
74791;SDS011;63319;46.046;17.802;2023-02-01T15:37:51;18.02;;;10.63;;
74791;SDS011;63319;46.046;17.802;2023-02-01T15:47:18;21.20;;;11.00;;
74791;SDS011;63319;46.046;17.802;2023-02-01T15:50:22;17.27;;;9.98;;
74791;SDS011;63319;46.046;17.802;2023-02-01T15:53:27;22.27;;;10.82;;
74791;SDS011;63319;46.046;17.802;2023-02-01T15:56:34;19.43;;;10.70;;
74791;SDS011;63319;46.046;17.802;2023-02-01T15:59:44;16.98;;;9.90;;
74791;SDS011;63319;46.046;17.802;2023-02-01T16:02:51;20.58;;;10.80;;
74791;SDS011;63319;46.046;17.802;2023-02-01T16:06:07;18.83;;;10.48;;
74791;SDS011;63319;46.046;17.802;2023-02-01T16:09:13;18.30;;;10.63;;
74791;SDS011;63319;46.046;17.802;2023-02-01T16:12:26;20.17;;;9.87;;
74791;SDS011;63319;46.046;17.802;2023-02-01T16:15:33;16.10;;;10.07;;
74791;SDS011;63319;46.046;17.802;2023-02-01T16:18:36;16.17;;;10.38;;
74791;SDS011;63319;46.046;17.802;2023-02-01T16:21:39;18.10;;;10.40;;
74791;SDS011;63319;46.046;17.802;2023-02-01T16:24:42;17.70;;;10.20;;
74791;SDS011;63319;46.046;17.802;2023-02-01T16:27:45;17.63;;;9.73;;
74791;SDS011;63319;46.046;17.802;2023-02-01T16:30:49;20.42;;;10.68;;
74791;SDS011;63319;46.046;17.802;2023-02-01T16:33:52;17.27;;;9.75;;
74791;SDS011;63319;46.046;17.802;2023-02-01T16:36:56;17.77;;;10.07;;
74791;SDS011;63319;46.046;17.802;2023-02-01T16:39:59;17.73;;;10.55;;
74791;SDS011;63319;46.046;17.802;2023-02-01T16:43:07;19.97;;;10.03;;
74791;SDS011;63319;46.046;17.802;2023-02-01T16:46:15;14.60;;;9.07;;
74791;SDS011;63319;46.046;17.802;2023-02-01T16:49:24;16.02;;;9.82;;
74791;SDS011;63319;46.046;17.802;2023-02-01T16:52:29;19.45;;;9.85;;
74791;SDS011;63319;46.046;17.802;2023-02-01T16:55:32;17.42;;;10.32;;
74791;SDS011;63319;46.046;17.802;2023-02-01T16:58:36;17.00;;;10.43;;
74791;SDS011;63319;46.046;17.802;2023-02-01T17:01:41;18.42;;;10.20;;
74791;SDS011;63319;46.046;17.802;2023-02-01T17:04:45;17.25;;;10.23;;
74791;SDS011;63319;46.046;17.802;2023-02-01T17:08:09;21.33;;;10.50;;
74791;SDS011;63319;46.046;17.802;2023-02-01T17:11:14;17.65;;;10.35;;
74791;SDS011;63319;46.046;17.802;2023-02-01T17:14:19;16.27;;;9.70;;
74791;SDS011;63319;46.046;17.802;2023-02-01T17:17:25;17.60;;;10.30;;
74791;SDS011;63319;46.046;17.802;2023-02-01T17:20:41;18.15;;;10.75;;
74791;SDS011;63319;46.046;17.802;2023-02-01T17:23:45;19.10;;;10.00;;
74791;SDS011;63319;46.046;17.802;2023-02-01T17:26:48;18.75;;;10.35;;
74791;SDS011;63319;46.046;17.802;2023-02-01T17:29:55;22.77;;;10.73;;
74791;SDS011;63319;46.046;17.802;2023-02-01T17:32:59;18.67;;;10.50;;
74791;SDS011;63319;46.046;17.802;2023-02-01T17:36:18;19.85;;;11.18;;
74791;SDS011;63319;46.046;17.802;2023-02-01T17:39:21;19.48;;;10.82;;
74791;SDS011;63319;46.046;17.802;2023-02-01T17:42:48;22.88;;;10.98;;
74791;SDS011;63319;46.046;17.802;2023-02-01T17:46:26;19.10;;;10.57;;
74791;SDS011;63319;46.046;17.802;2023-02-01T17:49:30;19.42;;;11.13;;
74791;SDS011;63319;46.046;17.802;2023-02-01T17:52:37;18.95;;;11.27;;
74791;SDS011;63319;46.046;17.802;2023-02-01T17:55:43;16.50;;;11.20;;
74791;SDS011;63319;46.046;17.802;2023-02-01T17:58:47;18.98;;;12.00;;
74791;SDS011;63319;46.046;17.802;2023-02-01T18:01:57;21.60;;;11.90;;
74791;SDS011;63319;46.046;17.802;2023-02-01T18:05:09;23.98;;;12.88;;
74791;SDS011;63319;46.046;17.802;2023-02-01T18:08:34;18.75;;;12.43;;
74791;SDS011;63319;46.046;17.802;2023-02-01T18:11:38;18.95;;;12.07;;
74791;SDS011;63319;46.046;17.802;2023-02-01T18:14:41;21.20;;;12.70;;
74791;SDS011;63319;46.046;17.802;2023-02-01T18:17:46;18.57;;;12.13;;
74791;SDS011;63319;46.046;17.802;2023-02-01T18:20:51;21.77;;;12.80;;
74791;SDS011;63319;46.046;17.802;2023-02-01T18:23:56;21.95;;;12.88;;
74791;SDS011;63319;46.046;17.802;2023-02-01T18:27:01;20.38;;;13.27;;
74791;SDS011;63319;46.046;17.802;2023-02-01T18:30:05;19.30;;;13.00;;
74791;SDS011;63319;46.046;17.802;2023-02-01T18:33:12;19.00;;;12.10;;
74791;SDS011;63319;46.046;17.802;2023-02-01T18:36:17;20.30;;;12.85;;
74791;SDS011;63319;46.046;17.802;2023-02-01T18:39:26;23.13;;;13.20;;
74791;SDS011;63319;46.046;17.802;2023-02-01T18:42:31;20.73;;;12.63;;
74791;SDS011;63319;46.046;17.802;2023-02-01T18:45:35;20.50;;;13.13;;
74791;SDS011;63319;46.046;17.802;2023-02-01T18:48:42;20.20;;;12.10;;
74791;SDS011;63319;46.046;17.802;2023-02-01T18:51:48;23.33;;;12.80;;
74791;SDS011;63319;46.046;17.802;2023-02-01T18:54:56;20.58;;;13.10;;
74791;SDS011;63319;46.046;17.802;2023-02-01T18:58:04;22.67;;;13.38;;
74791;SDS011;63319;46.046;17.802;2023-02-01T19:01:15;21.02;;;12.57;;
74791;SDS011;63319;46.046;17.802;2023-02-01T19:04:22;22.23;;;12.03;;
74791;SDS011;63319;46.046;17.802;2023-02-01T19:07:30;20.02;;;12.18;;
74791;SDS011;63319;46.046;17.802;2023-02-01T19:10:36;19.73;;;12.55;;
74791;SDS011;63319;46.046;17.802;2023-02-01T19:13:44;19.63;;;11.57;;
74791;SDS011;63319;46.046;17.802;2023-02-01T19:16:51;20.30;;;13.10;;
74791;SDS011;63319;46.046;17.802;2023-02-01T19:19:57;21.20;;;11.97;;
74791;SDS011;63319;46.046;17.802;2023-02-01T19:23:05;19.98;;;12.73;;
74791;SDS011;63319;46.046;17.802;2023-02-01T19:26:12;21.20;;;12.45;;
74791;SDS011;63319;46.046;17.802;2023-02-01T19:29:18;20.85;;;13.15;;
74791;SDS011;63319;46.046;17.802;2023-02-01T19:32:22;19.17;;;12.60;;
74791;SDS011;63319;46.046;17.802;2023-02-01T19:35:31;20.17;;;12.77;;
74791;SDS011;63319;46.046;17.802;2023-02-01T19:38:36;23.00;;;13.38;;
74791;SDS011;63319;46.046;17.802;2023-02-01T19:41:44;21.70;;;13.85;;
74791;SDS011;63319;46.046;17.802;2023-02-01T19:44:48;22.10;;;13.82;;
74791;SDS011;63319;46.046;17.802;2023-02-01T19:47:53;21.33;;;14.02;;
74791;SDS011;63319;46.046;17.802;2023-02-01T19:50:58;19.30;;;12.43;;
74791;SDS011;63319;46.046;17.802;2023-02-01T19:54:02;20.30;;;13.10;;
74791;SDS011;63319;46.046;17.802;2023-02-01T19:57:08;21.60;;;12.82;;
74791;SDS011;63319;46.046;17.802;2023-02-01T20:00:12;20.98;;;12.98;;
74791;SDS011;63319;46.046;17.802;2023-02-01T20:03:22;22.58;;;14.32;;
74791;SDS011;63319;46.046;17.802;2023-02-01T20:06:31;22.07;;;13.33;;
74791;SDS011;63319;46.046;17.802;2023-02-01T20:09:40;21.25;;;12.93;;
74791;SDS011;63319;46.046;17.802;2023-02-01T20:12:47;22.02;;;13.55;;
74791;SDS011;63319;46.046;17.802;2023-02-01T20:15:56;21.42;;;12.48;;
74791;SDS011;63319;46.046;17.802;2023-02-01T20:19:04;22.73;;;13.50;;
74791;SDS011;63319;46.046;17.802;2023-02-01T20:22:10;21.87;;;14.00;;
74791;SDS011;63319;46.046;17.802;2023-02-01T20:25:15;21.58;;;13.55;;
74791;SDS011;63319;46.046;17.802;2023-02-01T20:28:30;22.85;;;14.38;;
74791;SDS011;63319;46.046;17.802;2023-02-01T20:31:44;24.23;;;13.43;;
74791;SDS011;63319;46.046;17.802;2023-02-01T20:34:49;21.00;;;13.18;;
74791;SDS011;63319;46.046;17.802;2023-02-01T20:37:57;19.77;;;11.73;;
74791;SDS011;63319;46.046;17.802;2023-02-01T20:41:03;22.65;;;13.40;;
74791;SDS011;63319;46.046;17.802;2023-02-01T20:44:10;22.15;;;12.90;;
74791;SDS011;63319;46.046;17.802;2023-02-01T20:47:14;21.10;;;12.57;;
74791;SDS011;63319;46.046;17.802;2023-02-01T20:50:19;20.77;;;13.43;;
74791;SDS011;63319;46.046;17.802;2023-02-01T20:53:24;21.63;;;13.30;;
74791;SDS011;63319;46.046;17.802;2023-02-01T20:56:29;21.48;;;14.20;;
74791;SDS011;63319;46.046;17.802;2023-02-01T20:59:34;20.88;;;13.10;;